Saint George Island, FL

9:43 AM EST on December 04, 2016 (GMT -0500)
APRSWXNET | | Change Station
Active Advisory: Coastal Hazard Statement

Elev 45 ft 29.63 °N, 84.94 °W | Updated 44 days ago

Scattered Clouds
Scattered Clouds
78 °F
Feels Like 80 °F
N
5
Wind Variable Wind from ESE
Gusts 8.0 mph

Today
High -- | Low -- °F
--% Chance of Precip.
Yesterday
High -- | Low -- °F
Precip. -- in
Pressure 30.03 in
Visibility 10.0 miles
Clouds Scattered Clouds 8500 ft
Heat Index 80 °F
Dew Point 70 °F
Humidity 76%
Rainfall in
Snow Depth Not available.
7:19 AM 5:40 PM
Waxing Crescent, 23% visible
METAR KAAF 041353Z AUTO 14011KT 10SM SCT085 21/18 A3003 RMK AO2 SLP168 T02110178
Pressure 30.03 in
Visibility 10.0 miles
Clouds Scattered Clouds 8500 ft
Heat Index 80 °F
Dew Point 70 °F
Humidity 76%
Rainfall in
Snow Depth Not available.
7:19 AM 5:40 PM
Waxing Crescent, 23% visible
METAR KAAF 041353Z AUTO 14011KT 10SM SCT085 21/18 A3003 RMK AO2 SLP168 T02110178

10-Day Weather Forecast

Almanac

Astronomy

Dec. 04, 2016 Rise Set
Actual Time
Civil Twilight
Nautical Twilight
Astronomical Twilight
Moon
Length of Visible Light
Length of Day
Tomorrow will be .
, % of the Moon is Illuminated

Today's Extremes

State Highs State Lows

Community

WunderPhotos

Upload Photos

1,955,602 photos uploaded!

WunderBlog® & News

Nearby

Air Quality

  Air Quality AQ Index Pollutant
Not available.

Snow Depth

Station Depth Elevation

Earthquake Activity

City Distance Mag. Time & Date
Minimum magnitude displayed is 2.5.

Coastal Water Temperatures

Place Temperature

Stations

Nearby Weather Stations

Station Location Temp. Windchill Dew Point Humidity Wind Precip. Elev Updated Type
                   

Watches & Warnings

Coastal Hazard Statement
Issued: 3:02 AM CST Dec. 4, 2016 – National Weather Service

... High rip current risk in effect through this evening...

The National Weather Service in Tallahassee has issued a high rip
current risk... which is in effect through this evening.

* Timing... through this evening.

* Surf height... 2 to 4 feet... occasionally up to 5 feet.

Precautionary/preparedness actions...

There is a high risk of rip currents.

Rip currents are powerful channels of water flowing quickly away
from shore. They occur most often at low spots or breaks in The
Sandbar... as well as in the vicinity of jetties and piers.

Heed the advice of lifeguards... beach patrol flags... and signs
before entering the water. If caught in a rip current do not swim
against it. Face the shore and signal for help. Float or tread
water until the current ends or until rescued.